createdAt,value
2018-04-01T00:00:54.732Z,5.62
2018-04-01T00:01:54.712Z,5.57
2018-04-01T00:02:54.681Z,5.61
2018-04-01T00:03:54.661Z,5.51
2018-04-01T00:04:54.632Z,5.57
2018-04-01T00:05:54.602Z,5.57
2018-04-01T00:06:54.579Z,5.44
2018-04-01T00:07:54.561Z,5.48
2018-04-01T00:08:54.529Z,5.44
2018-04-01T00:09:54.507Z,5.38
2018-04-01T00:10:54.478Z,5.35
2018-04-01T00:11:54.455Z,5.46
2018-04-01T00:12:54.429Z,5.30
2018-04-01T00:13:54.406Z,5.29
2018-04-01T00:14:54.379Z,5.21
2018-04-01T00:15:54.356Z,5.26
2018-04-01T00:16:54.326Z,5.25
2018-04-01T00:17:54.342Z,5.23
2018-04-01T00:18:54.271Z,5.26
2018-04-01T00:19:54.243Z,5.20
2018-04-01T00:20:54.226Z,5.18
2018-04-01T00:21:54.251Z,5.15
2018-04-01T00:22:54.175Z,5.20
2018-04-01T00:23:54.159Z,5.11
2018-04-01T00:24:54.124Z,5.11
2018-04-01T00:25:54.112Z,5.10
2018-04-01T00:26:54.078Z,4.99
2018-04-01T00:27:54.046Z,5.07
2018-04-01T00:28:54.015Z,5.00
2018-04-01T00:29:53.995Z,4.97
2018-04-01T00:30:53.975Z,4.93
2018-04-01T00:31:53.944Z,5.05
2018-04-01T00:32:53.918Z,4.96
2018-04-01T00:33:53.893Z,4.99
2018-04-01T00:34:53.868Z,4.92
2018-04-01T00:35:53.843Z,4.92
2018-04-01T00:36:53.807Z,4.97
2018-04-01T00:37:53.790Z,5.07
2018-04-01T00:38:53.765Z,5.00
2018-04-01T00:39:53.742Z,5.07
2018-04-01T00:40:53.714Z,4.97
2018-04-01T00:41:53.696Z,5.05
2018-04-01T00:42:53.662Z,5.11
2018-04-01T00:43:53.634Z,5.04
2018-04-01T00:44:53.661Z,5.00
2018-04-01T00:45:53.589Z,5.07
2018-04-01T00:46:53.555Z,5.12
2018-04-01T00:47:53.529Z,5.14
2018-04-01T00:48:53.508Z,5.04
2018-04-01T00:49:53.484Z,4.96
2018-04-01T00:50:53.455Z,5.00
2018-04-01T00:51:53.431Z,5.02
2018-04-01T00:52:53.405Z,5.00
2018-04-01T00:53:53.376Z,4.94
2018-04-01T00:54:53.355Z,4.89
2018-04-01T00:55:53.334Z,4.87
2018-04-01T00:56:53.301Z,4.90
2018-04-01T00:57:53.277Z,4.94
2018-04-01T00:58:53.254Z,4.86
2018-04-01T00:59:53.279Z,4.90
2018-04-01T01:00:53.201Z,4.86
2018-04-01T01:01:53.175Z,4.78
2018-04-01T01:02:53.146Z,4.78
2018-04-01T01:03:53.127Z,4.74
2018-04-01T01:04:53.098Z,4.80
2018-04-01T01:05:53.067Z,4.80
2018-04-01T01:06:53.046Z,4.77
2018-04-01T01:07:53.021Z,4.87
2018-04-01T01:08:52.995Z,4.84
2018-04-01T01:10:03.755Z,4.82
2018-04-01T01:10:52.954Z,4.87
2018-04-01T01:11:52.934Z,4.86
2018-04-01T01:12:52.908Z,4.73
2018-04-01T01:13:52.873Z,4.80
2018-04-01T01:14:52.846Z,4.80
2018-04-01T01:15:52.820Z,4.75
2018-04-01T01:16:52.795Z,4.82
2018-04-01T01:17:52.767Z,4.78
2018-04-01T01:18:52.764Z,4.82
2018-04-01T01:19:52.721Z,4.74
2018-04-01T01:20:52.693Z,4.78
2018-04-01T01:21:52.667Z,4.78
2018-04-01T01:22:52.641Z,4.77
2018-04-01T01:23:52.615Z,4.78
2018-04-01T01:24:52.595Z,4.78
2018-04-01T01:25:52.578Z,4.94
2018-04-01T01:26:52.540Z,4.89
2018-04-01T01:27:52.517Z,4.89
2018-04-01T01:28:52.486Z,4.94
2018-04-01T01:29:52.472Z,4.87
2018-04-01T01:30:52.436Z,4.87
2018-04-01T01:31:52.406Z,4.80
2018-04-01T01:32:52.402Z,4.82
2018-04-01T01:33:52.383Z,4.84
2018-04-01T01:34:52.332Z,4.89
2018-04-01T01:35:52.335Z,4.96
2018-04-01T01:36:52.297Z,5.04
2018-04-01T01:37:52.273Z,4.94
2018-04-01T01:38:52.238Z,4.94
2018-04-01T01:39:52.203Z,4.87
2018-04-01T01:40:52.178Z,4.93
2018-04-01T01:41:52.159Z,4.89
2018-04-01T01:42:52.128Z,4.80
2018-04-01T01:43:52.110Z,4.92
2018-04-01T01:44:52.084Z,4.96
2018-04-01T01:45:52.050Z,4.89
2018-04-01T01:46:52.038Z,4.87
2018-04-01T01:47:51.998Z,4.89
2018-04-01T01:48:51.976Z,4.84
2018-04-01T01:49:51.948Z,4.97
2018-04-01T01:50:51.922Z,4.96
2018-04-01T01:51:51.898Z,4.93
2018-04-01T01:52:51.870Z,4.99
2018-04-01T01:53:51.844Z,4.94
2018-04-01T01:54:51.837Z,5.00
2018-04-01T01:55:51.794Z,5.02
2018-04-01T01:56:51.775Z,4.99
2018-04-01T01:57:51.744Z,5.02
2018-04-01T01:58:51.723Z,5.08
2018-04-01T01:59:51.695Z,5.05
2018-04-01T02:00:51.678Z,5.12
2018-04-01T02:01:51.652Z,5.11
2018-04-01T02:02:51.628Z,5.12
2018-04-01T02:03:51.590Z,5.17
2018-04-01T02:04:51.576Z,5.14
2018-04-01T02:05:51.551Z,5.08
2018-04-01T02:06:51.515Z,5.15
2018-04-01T02:07:51.494Z,5.14
2018-04-01T02:08:51.465Z,5.11
2018-04-01T02:09:51.487Z,5.00
2018-04-01T02:10:51.457Z,5.12
2018-04-01T02:11:51.388Z,5.00
2018-04-01T02:12:51.379Z,5.00
2018-04-01T02:13:51.347Z,5.00
2018-04-01T02:14:51.308Z,4.99
2018-04-01T02:15:51.284Z,4.99
2018-04-01T02:16:51.265Z,4.87
2018-04-01T02:17:51.234Z,5.00
2018-04-01T02:18:51.222Z,5.00
2018-04-01T02:19:51.192Z,5.02
2018-04-01T02:20:51.168Z,4.90
2018-04-01T02:21:51.142Z,4.90
2018-04-01T02:22:51.107Z,4.92
2018-04-01T02:23:51.081Z,4.93
2018-04-01T02:24:51.057Z,4.87
2018-04-01T02:25:51.041Z,4.86
2018-04-01T02:26:51.006Z,4.89
2018-04-01T02:27:50.978Z,4.86
2018-04-01T02:28:50.971Z,4.87
2018-04-01T02:29:50.932Z,4.96
2018-04-01T02:30:50.904Z,5.02
2018-04-01T02:31:50.889Z,5.04
2018-04-01T02:32:50.860Z,4.99
2018-04-01T02:33:50.827Z,5.00
2018-04-01T02:34:50.803Z,5.04
2018-04-01T02:35:50.779Z,4.97
2018-04-01T02:36:50.752Z,4.93
2018-04-01T02:37:50.727Z,4.93
2018-04-01T02:38:50.727Z,4.96
2018-04-01T02:39:50.686Z,4.89
2018-04-01T02:40:50.702Z,4.90
2018-04-01T02:41:50.635Z,4.87
2018-04-01T02:42:50.610Z,4.82
2018-04-01T02:43:50.574Z,4.82
2018-04-01T02:44:50.565Z,4.82
2018-04-01T02:45:50.522Z,4.82
2018-04-01T02:46:50.509Z,4.86
2018-04-01T02:47:50.470Z,4.86
2018-04-01T02:48:50.461Z,4.87
2018-04-01T02:49:50.420Z,4.90
2018-04-01T02:50:50.408Z,4.86
2018-04-01T02:51:50.382Z,4.82
2018-04-01T02:52:50.346Z,4.80
2018-04-01T02:53:50.332Z,4.86
2018-04-01T02:54:50.297Z,4.80
2018-04-01T02:55:50.279Z,4.87
2018-04-01T02:56:50.241Z,4.96
2018-04-01T02:57:50.221Z,5.02
2018-04-01T02:58:50.192Z,4.89
2018-04-01T02:59:50.168Z,4.89
2018-04-01T03:00:50.151Z,4.87
2018-04-01T03:01:50.125Z,4.96
2018-04-01T03:02:50.104Z,4.96
2018-04-01T03:03:50.065Z,4.99
2018-04-01T03:04:50.038Z,5.05
2018-04-01T03:05:50.023Z,5.10
2018-04-01T03:06:49.986Z,4.99
2018-04-01T03:07:49.977Z,5.00
2018-04-01T03:08:49.947Z,5.04
2018-04-01T03:09:49.915Z,4.99
2018-04-01T03:10:49.885Z,5.04
2018-04-01T03:11:49.861Z,4.99
2018-04-01T03:12:49.847Z,4.97
2018-04-01T03:13:49.815Z,5.02
2018-04-01T03:14:49.797Z,5.04
2018-04-01T03:15:49.764Z,4.97
2018-04-01T03:16:49.732Z,5.02
2018-04-01T03:17:49.713Z,4.94
2018-04-01T03:18:49.698Z,5.02
2018-04-01T03:19:49.657Z,4.99
2018-04-01T03:20:49.631Z,4.92
2018-04-01T03:21:49.606Z,4.92
2018-04-01T03:22:49.591Z,4.89
2018-04-01T03:23:49.555Z,4.99
2018-04-01T03:24:49.530Z,4.92
2018-04-01T03:25:49.505Z,4.93
2018-04-01T03:26:49.479Z,5.08
2018-04-01T03:27:49.459Z,4.99
2018-04-01T03:28:49.426Z,4.87
2018-04-01T03:29:49.418Z,4.92
2018-04-01T03:30:49.388Z,4.90
2018-04-01T03:31:49.351Z,4.87
2018-04-01T03:32:49.336Z,4.94
2018-04-01T03:33:49.310Z,4.84
2018-04-01T03:34:49.273Z,4.96
2018-04-01T03:35:49.263Z,4.94
2018-04-01T03:36:49.222Z,4.90
2018-04-01T03:37:49.212Z,4.84
2018-04-01T03:38:49.170Z,4.84
2018-04-01T03:39:49.155Z,4.89
2018-04-01T03:40:49.125Z,4.86
2018-04-01T03:41:49.105Z,4.90
2018-04-01T03:42:49.085Z,4.92
2018-04-01T03:43:49.047Z,4.89
2018-04-01T03:44:49.016Z,4.80
2018-04-01T03:45:49.008Z,4.86
2018-04-01T03:46:48.971Z,4.92
2018-04-01T03:47:48.940Z,4.99
2018-04-01T03:48:48.914Z,4.93
2018-04-01T03:49:48.888Z,4.90
2018-04-01T03:50:48.878Z,4.86
2018-04-01T03:51:48.851Z,4.92
2018-04-01T03:52:48.846Z,4.87
2018-04-01T03:53:48.797Z,4.87
2018-04-01T03:54:48.761Z,4.97
2018-04-01T03:55:48.743Z,4.86
2018-04-01T03:56:48.713Z,4.90
2018-04-01T03:57:48.694Z,4.90
2018-04-01T03:58:48.658Z,4.84
2018-04-01T03:59:48.655Z,4.87
2018-04-01T04:00:48.609Z,4.92
2018-04-01T04:01:48.591Z,4.84
2018-04-01T04:02:48.578Z,4.87
2018-04-01T04:03:48.530Z,4.89
2018-04-01T04:04:48.505Z,4.89
2018-04-01T04:05:48.478Z,4.86
2018-04-01T04:06:48.454Z,4.75
2018-04-01T04:07:48.426Z,4.77
2018-04-01T04:08:48.412Z,4.89
2018-04-01T04:09:48.376Z,4.90
2018-04-01T04:10:48.356Z,4.87
2018-04-01T04:11:48.325Z,4.80
2018-04-01T04:12:48.309Z,4.89
2018-04-01T04:13:48.287Z,4.89
2018-04-01T04:14:48.261Z,4.74
2018-04-01T04:15:48.239Z,4.75
2018-04-01T04:16:48.201Z,4.82
2018-04-01T04:17:48.184Z,4.92
2018-04-01T04:18:48.156Z,4.87
2018-04-01T04:19:48.119Z,4.89
2018-04-01T04:20:48.095Z,4.86
2018-04-01T04:21:48.070Z,4.89
2018-04-01T04:22:48.057Z,4.89
2018-04-01T04:23:48.017Z,4.86
2018-04-01T04:24:47.995Z,4.84
2018-04-01T04:25:47.978Z,4.84
2018-04-01T04:26:47.952Z,4.93
2018-04-01T04:27:47.916Z,4.90
2018-04-01T04:28:47.888Z,4.89
2018-04-01T04:29:47.883Z,4.87
2018-04-01T04:30:47.849Z,4.87
2018-04-01T04:31:47.817Z,4.82
2018-04-01T04:32:47.795Z,4.87
2018-04-01T04:33:47.761Z,4.87
2018-04-01T04:34:47.736Z,4.90
2018-04-01T04:35:47.721Z,4.84
2018-04-01T04:36:47.724Z,4.84
2018-04-01T04:37:47.670Z,4.82
2018-04-01T04:38:47.634Z,4.87
2018-04-01T04:39:47.617Z,4.89
2018-04-01T04:40:47.579Z,4.92
2018-04-01T04:41:47.557Z,4.82
2018-04-01T04:42:47.541Z,4.77
2018-04-01T04:43:47.506Z,4.84
2018-04-01T04:44:47.480Z,4.80
2018-04-01T04:45:47.453Z,4.70
2018-04-01T04:46:47.427Z,4.80
2018-04-01T04:47:47.413Z,4.74
2018-04-01T04:48:47.376Z,4.78
2018-04-01T04:49:47.362Z,4.77
2018-04-01T04:50:47.325Z,4.77
2018-04-01T04:51:47.304Z,4.75
2018-04-01T04:52:47.272Z,4.82
2018-04-01T04:53:47.246Z,4.73
2018-04-01T04:54:47.234Z,4.78
2018-04-01T04:55:47.196Z,4.77
2018-04-01T04:56:47.182Z,4.66
2018-04-01T04:57:47.144Z,4.70
2018-04-01T04:58:47.151Z,4.67
2018-04-01T04:59:47.104Z,4.70
2018-04-01T05:00:47.069Z,4.71
2018-04-01T05:01:47.062Z,4.73
2018-04-01T05:02:47.014Z,4.71
2018-04-01T05:03:47.004Z,4.80
2018-04-01T05:04:46.970Z,4.80
2018-04-01T05:05:46.951Z,4.77
2018-04-01T05:06:46.925Z,4.78
2018-04-01T05:07:46.886Z,4.78
2018-04-01T05:08:46.872Z,4.71
2018-04-01T05:09:46.845Z,4.67
2018-04-01T05:10:46.808Z,4.70
2018-04-01T05:11:46.796Z,4.78
2018-04-01T05:12:46.759Z,4.70
2018-04-01T05:13:46.733Z,4.77
2018-04-01T05:14:46.716Z,4.80
2018-04-01T05:15:46.690Z,4.77
2018-04-01T05:16:46.654Z,4.68
2018-04-01T05:17:46.629Z,4.78
2018-04-01T05:18:46.613Z,4.78
2018-04-01T05:19:46.596Z,4.74
2018-04-01T05:20:46.613Z,4.74
2018-04-01T05:21:46.525Z,4.82
2018-04-01T05:22:46.510Z,4.80
2018-04-01T05:23:46.472Z,4.68
2018-04-01T05:24:46.449Z,4.67
2018-04-01T05:25:46.433Z,4.84
2018-04-01T05:26:46.412Z,4.70
2018-04-01T05:27:46.369Z,4.75
2018-04-01T05:28:46.343Z,4.77
2018-04-01T05:29:46.329Z,4.75
2018-04-01T05:30:46.295Z,4.70
2018-04-01T05:31:46.267Z,4.73
2018-04-01T05:32:46.251Z,4.73
2018-04-01T05:33:46.217Z,4.80
2018-04-01T05:34:46.202Z,4.82
2018-04-01T05:35:46.171Z,4.84
2018-04-01T05:36:46.137Z,4.71
2018-04-01T05:37:46.113Z,4.71
2018-04-01T05:38:46.102Z,4.70
2018-04-01T05:39:46.076Z,4.70
2018-04-01T05:40:46.068Z,4.80
2018-04-01T05:41:46.008Z,4.82
2018-04-01T05:42:45.984Z,4.84
2018-04-01T05:43:45.975Z,4.78
2018-04-01T05:44:45.933Z,4.77
2018-04-01T05:45:45.918Z,4.68
2018-04-01T05:46:45.885Z,4.75
2018-04-01T05:47:45.852Z,4.86
2018-04-01T05:48:45.843Z,4.82
2018-04-01T05:49:45.825Z,4.82
2018-04-01T05:50:45.779Z,4.94
2018-04-01T05:51:45.754Z,4.92
2018-04-01T05:52:45.725Z,4.90
2018-04-01T05:53:45.701Z,4.89
2018-04-01T05:54:45.701Z,4.90
2018-04-01T05:55:45.650Z,4.92
2018-04-01T05:56:45.625Z,4.96
2018-04-01T05:57:45.599Z,4.96
2018-04-01T05:58:45.571Z,4.87
2018-04-01T05:59:45.556Z,4.89
2018-04-01T06:00:45.532Z,4.89
2018-04-01T06:01:45.506Z,4.78
2018-04-01T06:02:45.480Z,4.73
2018-04-01T06:03:45.466Z,4.73
2018-04-01T06:04:45.431Z,4.70
2018-04-01T06:05:45.403Z,4.70
2018-04-01T06:06:45.391Z,4.68
2018-04-01T06:07:45.340Z,4.73
2018-04-01T06:08:45.326Z,4.73
2018-04-01T06:09:45.301Z,4.77
2018-04-01T06:10:45.265Z,4.67
2018-04-01T06:11:45.249Z,4.58
2018-04-01T06:12:45.225Z,4.60
2018-04-01T06:13:45.187Z,4.59
2018-04-01T06:14:45.172Z,4.58
2018-04-01T06:15:45.135Z,4.60
2018-04-01T06:16:45.114Z,4.56
2018-04-01T06:17:45.082Z,4.62
2018-04-01T06:18:45.058Z,4.60
2018-04-01T06:19:45.032Z,4.56
2018-04-01T06:20:45.018Z,4.56
2018-04-01T06:21:44.986Z,4.62
2018-04-01T06:22:44.964Z,4.59
2018-04-01T06:23:44.945Z,4.55
2018-04-01T06:24:44.913Z,4.62
2018-04-01T06:25:44.916Z,4.55
2018-04-01T06:26:44.861Z,4.71
2018-04-01T06:27:44.823Z,4.67
2018-04-01T06:28:44.799Z,4.73
2018-04-01T06:29:44.773Z,4.75
2018-04-01T06:30:44.748Z,4.73
2018-04-01T06:31:44.733Z,4.82
2018-04-01T06:32:44.696Z,4.73
2018-04-01T06:33:44.671Z,4.59
2018-04-01T06:34:44.650Z,4.55
2018-04-01T06:35:44.634Z,4.62
2018-04-01T06:36:44.592Z,4.59
2018-04-01T06:37:44.564Z,4.62
2018-04-01T06:38:44.555Z,4.60
2018-04-01T06:39:44.515Z,4.56
2018-04-01T06:40:44.499Z,4.59
2018-04-01T06:41:44.473Z,4.56
2018-04-01T06:42:44.435Z,4.60
2018-04-01T06:43:44.446Z,4.59
2018-04-01T06:44:44.395Z,4.58
2018-04-01T06:45:44.380Z,4.58
2018-04-01T06:46:44.345Z,4.56
2018-04-01T06:47:44.315Z,4.58
2018-04-01T06:48:44.288Z,4.55
2018-04-01T06:49:44.254Z,4.50
2018-04-01T06:50:44.293Z,4.56
2018-04-01T06:51:44.202Z,4.55
2018-04-01T06:52:44.174Z,4.53
2018-04-01T06:53:44.150Z,4.55
2018-04-01T06:54:44.124Z,4.53
2018-04-01T06:55:44.109Z,4.49
2018-04-01T06:56:44.083Z,4.45
2018-04-01T06:57:44.059Z,4.41
2018-04-01T06:58:44.022Z,4.38
2018-04-01T06:59:44.025Z,4.37
2018-04-01T07:00:43.967Z,4.37
2018-04-01T07:01:43.947Z,4.23
2018-04-01T07:02:43.917Z,4.28
2018-04-01T07:03:43.886Z,4.24
2018-04-01T07:04:43.862Z,4.31
2018-04-01T07:05:43.835Z,4.22
2018-04-01T07:06:43.828Z,4.34
2018-04-01T07:07:43.785Z,4.24
2018-04-01T07:08:43.773Z,4.16
2018-04-01T07:09:43.742Z,4.08
2018-04-01T07:10:43.706Z,4.02
2018-04-01T07:11:43.690Z,4.02
2018-04-01T07:12:43.664Z,3.92
2018-04-01T07:13:43.629Z,4.02
2018-04-01T07:14:43.601Z,4.04
2018-04-01T07:15:43.576Z,4.01
2018-04-01T07:16:43.567Z,4.02
2018-04-01T07:17:43.532Z,4.02
2018-04-01T07:18:43.496Z,4.01
2018-04-01T07:19:43.479Z,4.05
2018-04-01T07:20:43.443Z,4.02
2018-04-01T07:21:43.455Z,4.02
2018-04-01T07:22:43.412Z,3.99
2018-04-01T07:23:43.453Z,4.04
2018-04-01T07:24:43.348Z,3.99
2018-04-01T07:25:43.331Z,4.02
2018-04-01T07:26:43.292Z,4.02
2018-04-01T07:27:43.258Z,3.98
2018-04-01T07:28:43.230Z,3.94
2018-04-01T07:29:43.220Z,3.98
2018-04-01T07:30:43.177Z,3.92
2018-04-01T07:31:43.163Z,3.83
2018-04-01T07:32:43.125Z,4.01
2018-04-01T07:33:43.098Z,3.94
2018-04-01T07:34:43.091Z,3.95
2018-04-01T07:35:43.062Z,3.87
2018-04-01T07:36:43.020Z,4.01
2018-04-01T07:37:43.003Z,4.06
2018-04-01T07:38:42.965Z,4.06
2018-04-01T07:39:42.954Z,4.12
2018-04-01T07:40:42.943Z,4.12
2018-04-01T07:41:42.888Z,4.10
2018-04-01T07:42:42.862Z,4.19
2018-04-01T07:43:42.837Z,4.20
2018-04-01T07:44:42.808Z,4.22
2018-04-01T07:45:42.783Z,4.34
2018-04-01T07:46:42.768Z,4.45
2018-04-01T07:47:42.732Z,4.37
2018-04-01T07:48:42.706Z,4.34
2018-04-01T07:49:42.677Z,4.32
2018-04-01T07:50:42.665Z,4.48
2018-04-01T07:51:42.639Z,4.53
2018-04-01T07:52:42.601Z,4.58
2018-04-01T07:53:42.585Z,4.58
2018-04-01T07:54:42.547Z,4.66
2018-04-01T07:55:42.521Z,4.78
2018-04-01T07:56:42.495Z,4.77
2018-04-01T07:57:42.481Z,4.82
2018-04-01T07:58:42.469Z,4.86
2018-04-01T07:59:42.439Z,4.82
2018-04-01T08:00:42.449Z,4.93
2018-04-01T08:01:42.366Z,5.02
2018-04-01T08:02:42.357Z,5.10
2018-04-01T08:03:42.327Z,5.11
2018-04-01T08:04:42.290Z,5.12
2018-04-01T08:05:42.276Z,5.15
2018-04-01T08:06:42.239Z,5.11
2018-04-01T08:07:42.226Z,5.17
2018-04-01T08:08:42.201Z,5.25
2018-04-01T08:09:42.176Z,5.25
2018-04-01T08:10:42.143Z,5.18
2018-04-01T08:11:42.132Z,5.23
2018-04-01T08:12:42.101Z,5.23
2018-04-01T08:13:42.064Z,5.21
2018-04-01T08:14:42.041Z,5.23
2018-04-01T08:15:42.049Z,5.15
2018-04-01T08:16:41.989Z,5.25
2018-04-01T08:17:41.975Z,5.23
2018-04-01T08:18:41.954Z,5.17
2018-04-01T08:19:41.917Z,5.21
2018-04-01T08:20:41.886Z,5.11
2018-04-01T08:21:41.871Z,5.15
2018-04-01T08:22:41.852Z,5.21
2018-04-01T08:23:41.814Z,5.20
2018-04-01T08:24:41.789Z,5.26
2018-04-01T08:25:41.768Z,5.25
2018-04-01T08:26:41.749Z,5.32
2018-04-01T08:27:41.722Z,5.20
2018-04-01T08:28:41.745Z,5.38
2018-04-01T08:29:41.673Z,5.38
2018-04-01T08:30:41.637Z,5.44
2018-04-01T08:31:41.617Z,5.54
2018-04-01T08:32:41.591Z,5.64
2018-04-01T08:33:41.579Z,5.73
2018-04-01T08:34:41.543Z,5.82
2018-04-01T08:35:41.514Z,5.90
2018-04-01T08:36:41.498Z,5.97
2018-04-01T08:37:41.476Z,6.02
2018-04-01T08:38:41.482Z,5.98
2018-04-01T08:39:41.415Z,6.02
2018-04-01T08:40:41.402Z,6.20
2018-04-01T08:41:41.386Z,6.28
2018-04-01T08:42:41.362Z,6.22
2018-04-01T08:43:41.316Z,6.39
2018-04-01T08:44:41.293Z,6.36
2018-04-01T08:45:41.270Z,6.48
2018-04-01T08:46:41.244Z,6.48
2018-04-01T08:47:41.276Z,6.49
2018-04-01T08:48:41.197Z,6.49
2018-04-01T08:49:41.175Z,6.57
2018-04-01T08:50:41.147Z,6.54
2018-04-01T08:51:41.125Z,6.35
2018-04-01T08:52:41.101Z,6.41
2018-04-01T08:53:41.078Z,6.35
2018-04-01T08:54:41.070Z,6.28
2018-04-01T08:55:41.034Z,6.26
2018-04-01T08:56:41.007Z,6.24
2018-04-01T08:57:40.994Z,6.27
2018-04-01T08:58:40.972Z,6.17
2018-04-01T08:59:40.935Z,6.14
2018-04-01T09:00:40.911Z,6.22
2018-04-01T09:01:40.886Z,6.17
2018-04-01T09:02:40.870Z,6.24
2018-04-01T09:03:40.852Z,6.20
2018-04-01T09:04:40.815Z,6.30
2018-04-01T09:05:40.804Z,6.20
2018-04-01T09:06:40.767Z,6.22
2018-04-01T09:07:40.751Z,6.20
2018-04-01T09:08:40.721Z,6.24
2018-04-01T09:09:40.698Z,6.14
2018-04-01T09:10:40.686Z,6.14
2018-04-01T09:11:40.660Z,6.20
2018-04-01T09:12:40.628Z,6.22
2018-04-01T09:13:40.615Z,6.11
2018-04-01T09:14:40.579Z,6.02
2018-04-01T09:15:40.565Z,6.05
2018-04-01T09:16:40.543Z,6.01
2018-04-01T09:17:40.512Z,6.16
2018-04-01T09:18:40.494Z,6.05
2018-04-01T09:19:40.467Z,6.19
2018-04-01T09:20:40.480Z,6.11
2018-04-01T09:21:40.410Z,6.12
2018-04-01T09:22:40.397Z,6.11
2018-04-01T09:23:40.358Z,6.17
2018-04-01T09:24:40.335Z,6.27
2018-04-01T09:25:40.312Z,6.35
2018-04-01T09:26:40.301Z,6.30
2018-04-01T09:27:40.268Z,6.31
2018-04-01T09:28:40.252Z,6.30
2018-04-01T09:29:40.227Z,6.35
2018-04-01T09:30:40.195Z,6.26
2018-04-01T09:31:40.169Z,6.24
2018-04-01T09:32:40.161Z,6.17
2018-04-01T09:33:40.123Z,6.20
2018-04-01T09:34:40.111Z,6.11
2018-04-01T09:35:40.073Z,6.04
2018-04-01T09:36:40.045Z,6.05
2018-04-01T09:37:40.040Z,6.01
2018-04-01T09:38:40.013Z,5.97
2018-04-01T09:39:39.979Z,6.04
2018-04-01T09:40:39.952Z,6.04
2018-04-01T09:41:39.927Z,5.99
2018-04-01T09:42:39.912Z,6.02
2018-04-01T09:43:39.879Z,6.02
2018-04-01T09:44:39.853Z,6.02
2018-04-01T09:45:39.831Z,6.07
2018-04-01T09:46:39.805Z,5.87
2018-04-01T09:47:39.793Z,5.87
2018-04-01T09:48:39.756Z,5.97
2018-04-01T09:49:39.733Z,5.99
2018-04-01T09:50:39.707Z,5.90
2018-04-01T09:51:39.699Z,5.93
2018-04-01T09:52:39.672Z,5.87
2018-04-01T09:53:39.640Z,5.86
2018-04-01T09:54:40.184Z,5.94
2018-04-01T09:55:39.587Z,5.80
2018-04-01T09:56:39.574Z,5.86
2018-04-01T09:57:39.536Z,5.82
2018-04-01T09:58:39.515Z,5.86
2018-04-01T09:59:39.489Z,5.83
2018-04-01T10:00:39.469Z,5.80
2018-04-01T10:01:39.437Z,5.76
2018-04-01T10:02:39.421Z,5.71
2018-04-01T10:03:39.389Z,5.71
2018-04-01T10:04:39.366Z,5.68
2018-04-01T10:05:39.355Z,5.69
2018-04-01T10:06:39.320Z,5.83
2018-04-01T10:07:39.334Z,5.80
2018-04-01T10:08:39.280Z,5.80
2018-04-01T10:09:39.255Z,5.87
2018-04-01T10:10:39.233Z,5.89
2018-04-01T10:11:39.199Z,5.86
2018-04-01T10:12:39.170Z,5.84
2018-04-01T10:13:39.148Z,5.94
2018-04-01T10:14:39.132Z,5.93
2018-04-01T10:15:39.098Z,5.87
2018-04-01T10:16:39.068Z,5.84
2018-04-01T10:17:39.058Z,5.98
2018-04-01T10:18:39.021Z,5.91
2018-04-01T10:19:39.015Z,5.80
2018-04-01T10:20:38.972Z,5.83
2018-04-01T10:21:38.947Z,5.80
2018-04-01T10:22:38.990Z,5.79
2018-04-01T10:23:38.897Z,5.89
2018-04-01T10:24:38.874Z,5.83
2018-04-01T10:25:38.862Z,5.89
2018-04-01T10:26:38.841Z,6.01
2018-04-01T10:27:38.813Z,5.93
2018-04-01T10:28:38.799Z,5.98
2018-04-01T10:29:38.762Z,5.97
2018-04-01T10:30:38.727Z,6.01
2018-04-01T10:31:38.701Z,6.07
2018-04-01T10:32:38.731Z,6.11
2018-04-01T10:33:38.655Z,6.19
2018-04-01T10:34:38.629Z,6.20
2018-04-01T10:35:38.603Z,6.09
2018-04-01T10:36:38.585Z,6.11
2018-04-01T10:37:38.557Z,6.05
2018-04-01T10:38:38.547Z,5.99
2018-04-01T10:39:38.509Z,6.12
2018-04-01T10:40:38.504Z,6.16
2018-04-01T10:41:38.472Z,6.26
2018-04-01T10:42:38.436Z,6.26
2018-04-01T10:43:38.408Z,6.27
2018-04-01T10:44:38.396Z,6.30
2018-04-01T10:45:38.362Z,6.38
2018-04-01T10:46:38.352Z,6.46
2018-04-01T10:47:38.315Z,6.44
2018-04-01T10:48:38.295Z,6.57
2018-04-01T10:49:38.276Z,6.52
2018-04-01T10:50:38.254Z,6.49
2018-04-01T10:51:38.216Z,6.46
2018-04-01T10:52:38.194Z,6.59
2018-04-01T10:53:38.168Z,6.60
2018-04-01T10:54:38.144Z,6.62
2018-04-01T10:55:38.120Z,6.60
2018-04-01T10:56:38.099Z,6.57
2018-04-01T10:57:38.087Z,6.63
2018-04-01T10:58:38.050Z,6.70
2018-04-01T10:59:38.025Z,6.72
2018-04-01T11:00:38.002Z,6.70
2018-04-01T11:01:37.984Z,6.85
2018-04-01T11:02:37.956Z,6.89
2018-04-01T11:03:37.941Z,6.92
2018-04-01T11:04:37.919Z,6.95
2018-04-01T11:05:37.884Z,6.95
2018-04-01T11:06:37.861Z,6.93
2018-04-01T11:07:37.836Z,6.89
2018-04-01T11:08:37.825Z,6.84
2018-04-01T11:09:37.794Z,6.85
2018-04-01T11:10:37.770Z,6.92
2018-04-01T11:11:37.755Z,6.92
2018-04-01T11:12:37.719Z,7.06
2018-04-01T11:13:37.697Z,7.11
2018-04-01T11:14:37.686Z,7.20
2018-04-01T11:15:37.666Z,7.31
2018-04-01T11:16:37.628Z,7.42
2018-04-01T11:17:37.612Z,7.43
2018-04-01T11:18:37.593Z,7.53
2018-04-01T11:19:37.570Z,7.58
2018-04-01T11:20:37.545Z,7.58
2018-04-01T11:21:37.521Z,7.67
2018-04-01T11:22:37.490Z,7.66
2018-04-01T11:23:37.464Z,7.76
2018-04-01T11:24:37.443Z,7.58
2018-04-01T11:25:37.431Z,7.67
2018-04-01T11:26:37.403Z,7.53
2018-04-01T11:27:37.387Z,7.57
2018-04-01T11:28:37.362Z,7.60
2018-04-01T11:29:37.342Z,7.54
2018-04-01T11:30:37.306Z,7.54
2018-04-01T11:31:37.294Z,7.53
2018-04-01T11:32:37.272Z,7.56
2018-04-01T11:33:37.248Z,7.61
2018-04-01T11:34:37.228Z,7.76
2018-04-01T11:35:37.195Z,7.87
2018-04-01T11:36:37.173Z,7.87
2018-04-01T11:37:37.153Z,7.90
2018-04-01T11:38:37.129Z,7.87
2018-04-01T11:39:37.105Z,7.73
2018-04-01T11:40:37.094Z,7.83
2018-04-01T11:41:37.062Z,7.83
2018-04-01T11:42:37.039Z,7.95
2018-04-01T11:43:37.022Z,8.12
2018-04-01T11:44:37.011Z,8.26
2018-04-01T11:45:36.972Z,8.19
2018-04-01T11:46:36.962Z,8.36
2018-04-01T11:47:36.939Z,8.37
2018-04-01T11:48:36.922Z,8.45
2018-04-01T11:49:36.885Z,8.51
2018-04-01T11:50:36.863Z,8.45
2018-04-01T11:51:36.841Z,8.31
2018-04-01T11:52:36.821Z,8.19
2018-04-01T11:53:36.819Z,8.19
2018-04-01T11:54:36.788Z,8.09
2018-04-01T11:55:36.772Z,8.27
2018-04-01T11:56:36.736Z,8.05
2018-04-01T11:57:36.712Z,8.01
2018-04-01T11:58:36.694Z,7.97
2018-04-01T11:59:36.669Z,8.15
2018-04-01T12:00:36.648Z,8.28
2018-04-01T12:01:36.639Z,8.28
2018-04-01T12:02:36.610Z,8.41
2018-04-01T12:03:36.596Z,8.52
2018-04-01T12:04:36.564Z,8.45
2018-04-01T12:05:36.541Z,8.49
2018-04-01T12:06:36.534Z,8.66
2018-04-01T12:07:36.515Z,8.64
2018-04-01T12:08:36.488Z,8.79
2018-04-01T12:09:36.457Z,8.81
2018-04-01T12:10:36.437Z,8.67
2018-04-01T12:11:36.414Z,8.58
2018-04-01T12:12:36.394Z,8.63
2018-04-01T12:13:36.382Z,8.61
2018-04-01T12:14:36.361Z,8.64
2018-04-01T12:15:36.334Z,8.74
2018-04-01T12:16:36.305Z,8.84
2018-04-01T12:17:36.307Z,8.82
2018-04-01T12:18:36.263Z,8.85
2018-04-01T12:19:36.240Z,8.88
2018-04-01T12:20:36.237Z,8.87
2018-04-01T12:21:36.210Z,8.84
2018-04-01T12:22:36.200Z,8.84
2018-04-01T12:23:36.175Z,8.63
2018-04-01T12:24:36.147Z,8.67
2018-04-01T12:25:36.114Z,8.67
2018-04-01T12:26:36.094Z,8.60
2018-04-01T12:27:36.084Z,8.51
2018-04-01T12:28:36.067Z,8.60
2018-04-01T12:29:36.040Z,8.70
2018-04-01T12:30:36.007Z,8.67
2018-04-01T12:31:35.987Z,8.76
2018-04-01T12:32:35.966Z,8.85
2018-04-01T12:33:35.955Z,8.81
2018-04-01T12:34:35.949Z,8.78
2018-04-01T12:35:35.913Z,8.85
2018-04-01T12:36:35.887Z,8.82
2018-04-01T12:37:35.866Z,8.89
2018-04-01T12:38:35.841Z,8.88
2018-04-01T12:39:35.832Z,9.00
2018-04-01T12:40:35.813Z,8.89
2018-04-01T12:41:35.774Z,8.99
2018-04-01T12:42:35.766Z,9.25
2018-04-01T12:43:35.742Z,9.29
2018-04-01T12:44:35.713Z,9.48
2018-04-01T12:45:35.690Z,9.43
2018-04-01T12:46:35.682Z,9.62
2018-04-01T12:47:35.659Z,9.65
2018-04-01T12:48:35.634Z,9.48
2018-04-01T12:49:35.607Z,9.51
2018-04-01T12:50:35.597Z,9.34
2018-04-01T12:51:35.576Z,9.39
2018-04-01T12:52:35.560Z,9.37
2018-04-01T12:53:35.536Z,9.23
2018-04-01T12:54:35.516Z,9.25
2018-04-01T12:55:35.496Z,9.16
2018-04-01T12:56:35.486Z,9.06
2018-04-01T12:57:35.450Z,9.14
2018-04-01T12:58:35.439Z,9.13
2018-04-01T12:59:35.412Z,9.06
2018-04-01T13:00:35.391Z,9.14
2018-04-01T13:01:35.378Z,9.18
2018-04-01T13:02:35.340Z,9.14
2018-04-01T13:03:35.317Z,9.14
2018-04-01T13:04:35.312Z,9.16
2018-04-01T13:05:35.288Z,9.18
2018-04-01T13:06:35.257Z,9.22
2018-04-01T13:07:35.234Z,9.18
2018-04-01T13:08:35.219Z,9.22
2018-04-01T13:09:35.210Z,9.10
2018-04-01T13:10:35.238Z,9.22
2018-04-01T13:11:35.152Z,9.32
2018-04-01T13:12:35.133Z,9.37
2018-04-01T13:13:35.114Z,9.48
2018-04-01T13:14:35.094Z,9.47
2018-04-01T13:15:35.070Z,9.40
2018-04-01T13:16:35.050Z,9.51
2018-04-01T13:17:35.033Z,9.58
2018-04-01T13:18:35.019Z,9.51